createdAt,value
2022-08-12T00:02:24.421Z,1.95
2022-08-12T00:07:45.855Z,2.42
2022-08-12T00:13:06.790Z,3.30
2022-08-12T00:18:27.910Z,2.78
2022-08-12T00:23:49.044Z,2.53
2022-08-12T00:29:13.280Z,2.30
2022-08-12T00:34:36.001Z,2.45
2022-08-12T00:39:58.415Z,3.10
2022-08-12T00:45:01.267Z,1.80
2022-08-12T00:50:04.686Z,3.70
2022-08-12T00:55:07.454Z,2.70
2022-08-12T01:00:20.228Z,1.85
2022-08-12T01:05:43.770Z,3.65
2022-08-12T01:11:06.568Z,2.45
2022-08-12T01:16:09.952Z,2.20
2022-08-12T01:21:24.811Z,2.50
2022-08-12T01:26:28.701Z,2.72
2022-08-12T01:31:31.666Z,2.25
2022-08-12T01:36:46.033Z,3.22
2022-08-12T01:41:54.011Z,1.83
2022-08-12T01:47:14.977Z,2.45
2022-08-12T01:52:33.211Z,3.13
2022-08-12T01:58:01.027Z,2.45
2022-08-12T02:04:00.182Z,2.75
2022-08-12T02:09:23.454Z,3.42
2022-08-12T02:14:56.935Z,2.25
2022-08-12T02:20:10.108Z,2.22
2022-08-12T02:25:34.493Z,2.13
2022-08-12T02:30:42.307Z,3.40
2022-08-12T02:35:45.798Z,4.35
2022-08-12T02:40:53.111Z,1.92
2022-08-12T02:46:01.815Z,2.05
2022-08-12T02:51:07.468Z,2.55
2022-08-12T02:56:10.142Z,2.80
2022-08-12T03:01:13.870Z,2.55
2022-08-12T03:06:21.764Z,3.17
2022-08-12T03:11:53.974Z,3.25
2022-08-12T03:17:11.409Z,4.93
2022-08-12T03:22:14.717Z,2.63
2022-08-12T03:27:17.808Z,3.83
2022-08-12T03:32:45.507Z,2.95
2022-08-12T03:37:47.142Z,3.22
2022-08-12T03:43:08.519Z,2.92
2022-08-12T03:48:34.136Z,5.15
2022-08-12T03:53:56.091Z,2.92
2022-08-12T03:59:19.438Z,2.38
2022-08-12T04:04:27.018Z,2.28
2022-08-12T04:09:30.476Z,2.75
2022-08-12T04:14:34.237Z,2.30
2022-08-12T04:19:37.457Z,2.80
2022-08-12T04:24:41.154Z,2.97
2022-08-12T04:30:29.263Z,3.47
2022-08-12T04:35:08.262Z,1.92
2022-08-12T04:40:13.333Z,5.10
2022-08-12T04:45:15.847Z,3.63
2022-08-12T04:50:33.801Z,3.00
2022-08-12T04:55:39.445Z,3.22
2022-08-12T05:00:41.888Z,12.73
2022-08-12T05:05:46.288Z,14.45
2022-08-12T05:10:48.968Z,14.43
2022-08-12T05:16:03.878Z,18.20
2022-08-12T05:21:12.448Z,9.82
2022-08-12T05:26:14.962Z,13.60
2022-08-12T05:31:47.625Z,9.48
2022-08-12T05:36:41.523Z,6.25
2022-08-12T05:41:44.600Z,8.43
2022-08-12T05:46:47.112Z,12.13
2022-08-12T05:51:49.867Z,6.97
2022-08-12T05:56:52.595Z,9.68
2022-08-12T06:02:11.254Z,7.20
2022-08-12T06:08:00.840Z,12.63
2022-08-12T06:12:38.509Z,5.85
2022-08-12T06:17:41.342Z,5.68
2022-08-12T06:22:45.676Z,10.10
2022-08-12T06:28:06.152Z,5.18
2022-08-12T06:33:59.790Z,4.15
2022-08-12T06:38:34.961Z,4.82
2022-08-12T06:44:05.938Z,6.50
2022-08-12T06:49:01.566Z,2.83
2022-08-12T06:54:04.247Z,7.28
2022-08-12T06:59:06.832Z,4.07
2022-08-12T07:04:33.654Z,4.35
2022-08-12T07:10:01.168Z,3.95
2022-08-12T07:14:54.609Z,4.15
2022-08-12T07:20:03.427Z,9.13
2022-08-12T07:25:25.610Z,5.25
2022-08-12T07:30:30.669Z,3.05
2022-08-12T07:35:34.534Z,4.82
2022-08-12T07:40:37.285Z,4.95
2022-08-12T07:45:40.875Z,4.00
2022-08-12T07:50:43.725Z,3.67
2022-08-12T07:55:46.683Z,2.95
2022-08-12T08:00:49.866Z,3.55
2022-08-12T08:05:52.594Z,6.50
2022-08-12T08:11:18.654Z,4.15
2022-08-12T08:16:21.240Z,4.90
2022-08-12T08:21:29.694Z,5.13
2022-08-12T08:26:32.759Z,3.97
2022-08-12T08:31:45.668Z,3.00
2022-08-12T08:36:48.907Z,10.30
2022-08-12T08:42:16.871Z,4.22
2022-08-12T08:47:23.466Z,3.78
2022-08-12T08:52:38.541Z,4.50
2022-08-12T08:57:45.530Z,2.78
2022-08-12T09:14:12.384Z,2.33
2022-08-12T09:19:01.836Z,3.15
2022-08-12T09:24:05.860Z,3.42
2022-08-12T09:29:12.014Z,2.92
2022-08-12T09:34:29.085Z,2.60
2022-08-12T09:40:02.031Z,4.97
2022-08-12T09:45:19.225Z,2.60
2022-08-12T09:50:25.870Z,3.28
2022-08-12T09:56:05.433Z,3.78
2022-08-12T10:00:54.945Z,3.03
2022-08-12T10:06:26.238Z,2.40
2022-08-12T10:12:10.728Z,2.85
2022-08-12T10:17:08.893Z,4.15
2022-08-12T10:22:17.112Z,7.95
2022-08-12T10:28:04.729Z,3.17
2022-08-12T10:33:18.956Z,5.50
2022-08-12T10:38:40.978Z,5.00
2022-08-12T10:43:55.097Z,6.63
2022-08-12T10:49:06.840Z,5.38
2022-08-12T10:54:27.383Z,2.85
2022-08-12T11:00:03.806Z,5.28
2022-08-12T11:04:58.666Z,2.45
2022-08-12T11:10:02.968Z,7.03
2022-08-12T11:15:19.208Z,2.50
2022-08-12T11:20:30.811Z,8.88
2022-08-12T11:25:56.893Z,4.35
2022-08-12T11:31:00.130Z,3.45
2022-08-12T11:36:14.702Z,3.17
2022-08-12T11:41:20.693Z,3.72
2022-08-12T11:46:41.322Z,2.55
2022-08-12T11:51:43.794Z,3.47
2022-08-12T11:57:02.363Z,2.80
2022-08-12T12:02:06.738Z,2.95
2022-08-12T12:07:11.525Z,2.72
2022-08-12T12:12:15.053Z,5.40
2022-08-12T12:17:17.963Z,3.53
2022-08-12T12:22:23.714Z,8.57
2022-08-12T12:28:00.027Z,4.78
2022-08-12T12:32:53.580Z,3.80
2022-08-12T12:38:04.391Z,2.78
2022-08-12T12:43:09.114Z,8.80
2022-08-12T12:48:17.670Z,3.42
2022-08-12T12:54:06.305Z,3.10
2022-08-12T12:58:44.669Z,3.83
2022-08-12T13:03:49.199Z,2.97
2022-08-12T13:09:02.603Z,2.88
2022-08-12T13:14:11.821Z,3.35
2022-08-12T13:19:15.192Z,5.75
2022-08-12T13:24:17.809Z,3.00
2022-08-12T13:29:21.628Z,2.70
2022-08-12T13:34:34.258Z,3.20
2022-08-12T13:39:39.352Z,4.53
2022-08-12T13:44:42.730Z,5.53
2022-08-12T13:49:53.851Z,2.92
2022-08-12T13:54:58.149Z,4.45
2022-08-12T14:00:01.830Z,3.25
2022-08-12T14:05:30.167Z,2.75
2022-08-12T14:10:50.577Z,3.70
2022-08-12T14:15:58.956Z,10.43
2022-08-12T14:21:09.600Z,5.28
2022-08-12T14:26:19.989Z,9.38
2022-08-12T14:31:27.921Z,7.50
2022-08-12T14:36:34.514Z,5.80
2022-08-12T14:41:48.462Z,13.90
2022-08-12T14:46:59.484Z,6.43
2022-08-12T14:52:58.847Z,6.15
2022-08-12T14:57:33.690Z,5.35
2022-08-12T15:02:40.104Z,8.80
2022-08-12T15:07:49.378Z,9.13
2022-08-12T15:12:54.571Z,5.22
2022-08-12T15:18:03.837Z,9.98
2022-08-12T15:23:18.111Z,6.25
2022-08-12T15:28:26.150Z,5.15
2022-08-12T15:33:45.103Z,7.30
2022-08-12T15:38:48.054Z,7.90
2022-08-12T15:44:16.584Z,9.73
2022-08-12T15:49:16.997Z,5.72
2022-08-12T15:54:30.902Z,7.78
2022-08-12T16:00:00.710Z,5.72
2022-08-12T16:05:01.217Z,7.10
2022-08-12T16:10:08.371Z,6.60
2022-08-12T16:15:13.661Z,7.25
2022-08-12T16:20:21.610Z,6.75
2022-08-12T16:25:35.258Z,4.53
2022-08-12T16:30:50.128Z,5.28
2022-08-12T16:35:54.068Z,6.75
2022-08-12T16:40:57.001Z,5.22
2022-08-12T16:46:31.570Z,7.38
2022-08-12T16:51:28.216Z,5.38
2022-08-12T16:56:32.212Z,12.18
2022-08-12T17:01:36.770Z,11.55
2022-08-12T17:06:43.463Z,6.20
2022-08-12T17:11:49.777Z,7.13
2022-08-12T17:16:55.177Z,6.57
2022-08-12T17:22:05.778Z,7.32
2022-08-12T17:27:16.248Z,9.93
2022-08-12T17:32:28.296Z,7.40
2022-08-12T17:37:34.083Z,15.73
2022-08-12T17:42:38.502Z,7.28
2022-08-12T17:47:41.968Z,7.07
2022-08-12T17:52:45.308Z,9.85
2022-08-12T17:58:00.153Z,6.07
2022-08-12T18:03:04.514Z,8.20
2022-08-12T18:08:11.817Z,23.90
2022-08-12T18:13:40.459Z,23.58
2022-08-12T18:18:38.524Z,22.70
2022-08-12T18:23:53.591Z,19.23
2022-08-12T18:28:57.629Z,21.63
2022-08-12T18:34:02.760Z,41.45
2022-08-12T18:39:07.477Z,38.20
2022-08-12T18:44:12.883Z,20.52
2022-08-12T18:49:20.692Z,19.67
2022-08-12T18:54:27.326Z,28.92
2022-08-12T19:00:00.000Z,21.02
2022-08-12T19:04:54.607Z,20.65
2022-08-12T19:09:59.978Z,16.45
2022-08-12T19:15:08.359Z,20.27
2022-08-12T19:20:13.696Z,22.50
2022-08-12T19:25:23.707Z,19.15
2022-08-12T19:31:04.599Z,16.98
2022-08-12T19:36:25.368Z,29.55
2022-08-12T19:41:42.449Z,19.77
2022-08-12T19:46:53.320Z,20.08
2022-08-12T19:51:55.898Z,31.48
2022-08-12T19:56:59.349Z,27.83
2022-08-12T20:02:11.614Z,26.27
2022-08-12T20:07:23.475Z,22.70
2022-08-12T20:12:44.693Z,15.13
2022-08-12T20:17:57.943Z,31.20
2022-08-12T20:23:08.597Z,17.13
2022-08-12T20:28:12.130Z,13.73
2022-08-12T20:33:17.892Z,15.32
2022-08-12T20:38:27.279Z,11.27
2022-08-12T20:43:32.151Z,8.52
2022-08-12T20:48:35.394Z,8.77
2022-08-12T20:53:58.148Z,13.90
2022-08-12T20:59:10.413Z,8.52
2022-08-12T21:04:31.905Z,11.68
2022-08-12T21:09:44.312Z,14.63
2022-08-12T21:14:56.666Z,17.55
2022-08-12T21:20:06.708Z,14.95
2022-08-12T21:25:18.886Z,8.55
2022-08-12T21:30:21.307Z,11.90
2022-08-12T21:35:29.976Z,6.00
2022-08-12T21:40:51.519Z,7.75
2022-08-12T21:46:00.241Z,9.70
2022-08-12T21:51:03.362Z,7.63
2022-08-12T21:56:34.489Z,10.88
2022-08-12T22:01:44.295Z,8.05
2022-08-12T22:06:53.746Z,6.25
2022-08-12T22:12:20.286Z,10.60
2022-08-12T22:17:33.748Z,8.48
2022-08-12T22:22:56.016Z,10.38
2022-08-12T22:28:17.734Z,8.25
2022-08-12T22:33:27.200Z,6.22
2022-08-12T22:38:30.244Z,10.10
2022-08-12T22:43:58.694Z,9.68
2022-08-12T22:49:06.664Z,7.25
2022-08-12T22:54:36.073Z,5.93
2022-08-12T22:59:51.437Z,6.53
2022-08-12T23:04:58.263Z,6.15
2022-08-12T23:10:01.409Z,6.78
2022-08-12T23:15:04.990Z,5.70
2022-08-12T23:20:07.976Z,7.57
2022-08-12T23:25:18.980Z,6.75
2022-08-12T23:30:31.801Z,6.00
2022-08-12T23:35:45.561Z,6.32
2022-08-12T23:40:54.957Z,6.07
2022-08-12T23:46:02.227Z,7.03
2022-08-12T23:51:22.370Z,6.20
2022-08-12T23:56:26.463Z,5.43
